PILOTS ONLINE: 457    ATC ONLINE: 48

EGPC

Wick Airport

Location

IATA WIC
City Wick
Country  United Kingdom
Latitude 58° 27' 32" N
Longitude 3° 5' 35" W
Elevation 126 ft
Type Medium Airport

Map

Weather

METAR
2014/08/30 23:50
EGPC 302350Z AUTO 31009KT 6000 SCT002/// SCT013/// BKN022/// 12/12 Q1011
TAF
No TAF available

Runways

08/26 3399 ft / 148 ft
13/31 5988 ft / 148 ft

Outbound flights

Callsign Flying to Pilot ATD/STD ETA Aircraft

Inbound flights

Callsign Flying from Pilot ATD ETA Aircraft